Map

Track Data

SID SEASON NUMBER BASIN SUBBASIN NAME ISO_TIME NATURE LAT LON WMO_WIND WMO_PRES WMO_AGENCY TRACK_TYPE DIST2LAND LANDFALL IFLAG USA_AGENCY USA_ATCF_ID USA_LAT USA_LON USA_RECORD USA_STATUS USA_WIND USA_PRES USA_SSHS USA_R34_NE USA_R34_SE USA_R34_SW USA_R34_NW USA_R50_NE USA_R50_SE USA_R50_SW USA_R50_NW USA_R64_NE USA_R64_SE USA_R64_SW USA_R64_NW USA_POCI USA_ROCI USA_RMW USA_EYE TOKYO_LAT TOKYO_LON TOKYO_GRADE TOKYO_WIND TOKYO_PRES TOKYO_R50_DIR TOKYO_R50_LONG TOKYO_R50_SHORT TOKYO_R30_DIR TOKYO_R30_LONG TOKYO_R30_SHORT TOKYO_LAND CMA_LAT CMA_LON CMA_CAT CMA_WIND CMA_PRES HKO_LAT HKO_LON HKO_CAT HKO_WIND HKO_PRES NEWDELHI_LAT NEWDELHI_LON NEWDELHI_GRADE NEWDELHI_WIND NEWDELHI_PRES NEWDELHI_CI NEWDELHI_DP NEWDELHI_POCI REUNION_LAT REUNION_LON REUNION_TYPE REUNION_WIND REUNION_PRES REUNION_TNUM REUNION_CI REUNION_RMW REUNION_R34_NE REUNION_R34_SE REUNION_R34_SW REUNION_R34_NW REUNION_R50_NE REUNION_R50_SE REUNION_R50_SW REUNION_R50_NW REUNION_R64_NE REUNION_R64_SE REUNION_R64_SW REUNION_R64_NW BOM_LAT BOM_LON BOM_TYPE BOM_WIND BOM_PRES BOM_TNUM BOM_CI BOM_RMW BOM_R34_NE BOM_R34_SE BOM_R34_SW BOM_R34_NW BOM_R50_NE BOM_R50_SE BOM_R50_SW BOM_R50_NW BOM_R64_NE BOM_R64_SE BOM_R64_SW BOM_R64_NW BOM_ROCI BOM_POCI BOM_EYE BOM_POS_METHOD BOM_PRES_METHOD NADI_LAT NADI_LON NADI_CAT NADI_WIND NADI_PRES WELLINGTON_LAT WELLINGTON_LON WELLINGTON_WIND WELLINGTON_PRES DS824_LAT DS824_LON DS824_STAGE DS824_WIND DS824_PRES TD9636_LAT TD9636_LON TD9636_STAGE TD9636_WIND TD9636_PRES TD9635_LAT TD9635_LON TD9635_WIND TD9635_PRES TD9635_ROCI NEUMANN_LAT NEUMANN_LON NEUMANN_CLASS NEUMANN_WIND NEUMANN_PRES MLC_LAT MLC_LON MLC_CLASS MLC_WIND MLC_PRES USA_GUST BOM_GUST BOM_GUST_PER REUNION_GUST REUNION_GUST_PER USA_SEAHGT USA_SEARAD_NE USA_SEARAD_SE USA_SEARAD_SW USA_SEARAD_NW STORM_SPEED STORM_DIR
2020360S16057 2021 5 SI MM CHALANE 2020-12-25 00:00:00 NR -15.8000 56.5000 PROVISIONAL 492 489 O_____________ tcvitals SI072020 -15.8000 56.5000 35 1001 0 90 60 11 11 1006 175 45 9 261
2020360S16057 2021 5 SI MM CHALANE 2020-12-25 03:00:00 NR -15.8703 56.0302 PROVISIONAL 495 495 P_____________ SI072020 -15.8703 56.0302 35 1002 0 90 60 13 13 1006 180 45 9 263
2020360S16057 2021 5 SI MM CHALANE 2020-12-25 06:00:00 NR -15.9000 55.6000 PROVISIONAL 511 506 O_____________ tcvitals SI072020 -15.9000 55.6000 35 1003 0 90 60 15 15 1007 185 45 8 269
2020360S16057 2021 5 SI MM CHALANE 2020-12-25 09:00:00 NR -15.8772 55.2222 PROVISIONAL 506 463 P_____________ SI072020 -15.8772 55.2222 35 1002 0 90 60 17 17 1006 192 45 8 270
2020360S16057 2021 5 SI MM CHALANE 2020-12-25 12:00:00 NR -15.9000 54.8000 PROVISIONAL 463 403 O_____________ tcvitals SI072020 -15.9000 54.8000 35 1001 0 90 60 20 20 1005 200 45 10 256
2020360S16057 2021 5 SI MM CHALANE 2020-12-25 15:00:00 NR -16.1229 54.1781 PROVISIONAL 403 346 P_____________ SI072020 -16.1229 54.1781 35 1000 0 55 72 52 20 1006 190 45 12 251
2020360S16057 2021 5 SI MM CHALANE 2020-12-25 18:00:00 NR -16.3000 53.6000 PROVISIONAL 346 312 O_____________ tcvitals SI072020 -16.3000 53.6000 35 1000 0 20 85 85 20 1008 180 45 8 267
2020360S16057 2021 5 SI MM CHALANE 2020-12-25 21:00:00 NR -16.1721 53.3122 PROVISIONAL 312 286 P_____________ SI072020 -16.1721 53.3122 35 1000 0 20 85 85 20 1008 180 45 6 302
2020360S16057 2021 5 SI MM CHALANE 2020-12-26 00:00:00 NR -16.0000 53.1000 PROVISIONAL 286 255 O_____________ tcvitals SI072020 -16.0000 53.1000 35 1000 0 20 85 85 20 1008 180 45 5 291
2020360S16057 2021 5 SI MM CHALANE 2020-12-26 03:00:00 NR -15.9896 52.8247 PROVISIONAL 255 217 P_____________ SI072020 -15.9896 52.8247 35 1000 0 25 75 77 22 1007 150 55 7 262
2020360S16057 2021 5 SI MM CHALANE 2020-12-26 06:00:00 NR -16.1000 52.4000 PROVISIONAL 217 159 O_____________ tcvitals SI072020 -16.1000 52.4000 35 1000 0 30 65 70 25 1007 120 65 11 254
2020360S16057 2021 5 SI MM CHALANE 2020-12-26 09:00:00 NR -16.2980 51.6876 PROVISIONAL 159 100 P_____________ SI072020 -16.2980 51.6876 35 1000 0 30 60 67 20 1007 120 57 15 251
2020360S16057 2021 5 SI MM CHALANE 2020-12-26 12:00:00 NR -16.6000 50.9000 PROVISIONAL 100 57 O_____________ tcvitals SI072020 -16.6000 50.9000 35 1000 0 30 55 65 15 1007 120 50 15 243
2020360S16057 2021 5 SI MM CHALANE 2020-12-26 15:00:00 NR -16.9997 50.2627 PROVISIONAL 57 31 P_____________ SI072020 -16.9997 50.2627 35 1003 0 30 52 70 20 1008 127 47 14 235
2020360S16057 2021 5 SI MM CHALANE 2020-12-26 18:00:00 NR -17.4000 49.7000 PROVISIONAL 31 0 O_____________ tcvitals SI072020 -17.4000 49.7000 35 1006 0 30 50 75 25 1009 135 45 12 236
2020360S16057 2021 5 SI MM CHALANE 2020-12-26 21:00:00 NR -17.6947 49.1923 PROVISIONAL 0 0 P_____________ SI072020 -17.6947 49.1923 32 1006 -1 1009 135 37 11 242
2020360S16057 2021 5 SI MM CHALANE 2020-12-27 00:00:00 NR -17.9000 48.7000 PROVISIONAL 0 0 O_____________ tcvitals SI072020 -17.9000 48.7000 29 1006 -1 1009 135 30 10 252
2020360S16057 2021 5 SI MM CHALANE 2020-12-27 03:00:00 NR -18.0150 48.1497 PROVISIONAL 0 0 P_____________ SI072020 -18.0150 48.1497 27 1007 -1 1009 145 30 11 259
2020360S16057 2021 5 SI MM CHALANE 2020-12-27 06:00:00 NR -18.1000 47.6000 PROVISIONAL 0 0 O_____________ tcvitals SI072020 -18.1000 47.6000 25 1008 -1 1010 155 30 10 259
2020360S16057 2021 5 SI MM CHALANE 2020-12-27 09:00:00 NR -18.2048 47.0921 PROVISIONAL 0 0 P_____________ SI072020 -18.2048 47.0921 25 1006 -1 1008 152 30 10 252
2020360S16057 2021 5 SI MM CHALANE 2020-12-27 12:00:00 NR -18.4000 46.6000 PROVISIONAL 0 0 O_____________ tcvitals SI072020 -18.4000 46.6000 25 1004 -1 1006 150 30 11 238
2020360S16057 2021 5 SI MM CHALANE 2020-12-27 15:00:00 NR -18.8000 46.0780 PROVISIONAL 0 0 P_____________ SI072020 -18.8000 46.0780 27 1003 -1 1006 150 30 12 230
2020360S16057 2021 5 SI MM CHALANE 2020-12-27 18:00:00 NR -19.2000 45.6000 PROVISIONAL 0 0 O_____________ tcvitals SI072020 -19.2000 45.6000 29 1002 -1 1006 150 30 10 233
2020360S16057 2021 5 SI MM CHALANE 2020-12-27 21:00:00 NR -19.3720 45.2643 PROVISIONAL 0 0 P_____________ SI072020 -19.3720 45.2643 29 1002 -1 1006 150 30 7 246
2020360S16057 2021 5 SI MM CHALANE 2020-12-28 00:00:00 NR -19.5000 44.9000 PROVISIONAL 0 0 O_____________ tcvitals SI072020 -19.5000 44.9000 29 1002 -1 1006 150 30 10 246
2020360S16057 2021 5 SI MM CHALANE 2020-12-28 03:00:00 NR -19.7627 44.3436 PROVISIONAL 10 10 P_____________ SI072020 -19.7627 44.3436 32 1004 -1 1008 142 27 12 246
2020360S16057 2021 5 SI MM CHALANE 2020-12-28 06:00:00 NR -20.0000 43.7000 PROVISIONAL 69 69 O_____________ tcvitals SI072020 -20.0000 43.7000 35 1007 0 25 30 1010 135 25 13 254
2020360S16057 2021 5 SI MM CHALANE 2020-12-28 09:00:00 NR -20.1136 43.0336 PROVISIONAL 122 122 P_____________ SI072020 -20.1136 43.0336 36 1006 0 12 264
2020360S16057 2021 5 SI MM CHALANE 2020-12-28 12:00:00 NR -20.1321 42.4238 PROVISIONAL 174 174 I_____________ tcvitals SI072020 -20.1321 42.4238 37 1005 0 10 271
2020360S16057 2021 5 SI MM CHALANE 2020-12-28 15:00:00 NR -20.0883 41.9322 PROVISIONAL 220 220 P_____________ SI072020 -20.0908 41.9160 38 1004 0 8 280
2020360S16057 2021 5 SI MM CHALANE 2020-12-28 18:00:00 NR -20.0000 41.6000 PROVISIONAL 252 250 O_____________ tcvitals SI072020 -20.0000 41.6000 39 1003 0 11 40 35 11 1008 100 25 3 306
2020360S16057 2021 5 SI MM CHALANE 2020-12-28 21:00:00 NR -19.9043 41.6660 PROVISIONAL 250 250 P_____________ SI072020 -19.9043 41.6660 42 1001 0 23 40 37 13 1008 190 25 2 8
2020360S16057 2021 5 SI MM CHALANE 2020-12-29 00:00:00 NR -19.8000 41.6000 PROVISIONAL 264 264 O_____________ tcvightals SI072020 -19.8000 41.6000 45 999 0 35 40 40 15 1008 280 25 8 286
2020360S16057 2021 5 SI MM CHALANE 2020-12-29 03:00:00 NR -19.6861 40.8546 PROVISIONAL 330 306 P_____________ SI072020 -19.6861 40.8546 45 997 0 45 40 42 32 1008 220 27 16 277
2020360S16057 2021 5 SI MM CHALANE 2020-12-29 06:00:00 NR -19.6000 39.9000 PROVISIONAL 302 282 O_____________ tcvightals SI072020 -19.6000 39.9000 45 995 0 55 40 45 50 1008 160 30 16 274
2020360S16057 2021 5 SI MM CHALANE 2020-12-29 09:00:00 NR -19.5774 39.1327 PROVISIONAL 277 229 P_____________ SI072020 -19.5774 39.1327 49 992 0 47 37 45 52 1006 165 25 13 270
2020360S16057 2021 5 SI MM CHALANE 2020-12-29 12:00:00 NR -19.6000 38.5000 PROVISIONAL 229 208 O_____________ tcvightals SI072020 -19.6000 38.5000 54 990 0 40 35 45 55 1005 170 20 10 264
2020360S16057 2021 5 SI MM CHALANE 2020-12-29 15:00:00 NR -19.6865 38.1155 PROVISIONAL 208 172 P_____________ SI072020 -19.6865 38.1155 57 991 0 50 52 55 55 1006 180 20 8 262
2020360S16057 2021 5 SI MM CHALANE 2020-12-29 18:00:00 NR -19.7000 37.7000 PROVISIONAL 172 99 O_____________ tcvightals SI072020 -19.7000 37.7000 60 992 0 60 70 65 55 1008 190 20 11 279
2020360S16057 2021 5 SI MM CHALANE 2020-12-29 21:00:00 NR -19.5140 36.9938 PROVISIONAL 99 33 P_____________ SI072020 -19.5140 36.9938 60 991 0 57 70 67 57 1008 190 20 16 288
2020360S16057 2021 5 SI MM CHALANE 2020-12-30 00:00:00 NR -19.2000 36.1000 PROVISIONAL 30 O_____________ tcvightals SI072020 -19.2000 36.1000 60 991 0 55 70 70 60 1008 190 20 18 290

About IBTrACS Database

This database is a web-friendly format of International Best Track Archive for Climate Stewardship (IBTrACS), a global best track data archive curated by NOAA dating back to 1842.

Updated: 2021-12-03